Valletta, Malta
Current Conditions -  °F | °C
As of 7:45 PM on Monday 20 Oct 2014 (Local Time) from LMML Reporting Station
Few Clouds Few Clouds  
Wind Chill: 72°   Ceiling: Unl
Heat Index: 72°   Visibility: 6mi
Dew Point: 63°   Wind: 2mph
Humidity: 73%   Direction: 280°W
Pressure: 30.12"   Gusts: NA
Location:  35.91°N, 14.52°E
Report Text: LMML 201745Z 28002KT 9999 FEW025 22/17 Q1020 NOSIG
Loading
Personal Weather Stations






























Interactive Weather Map
Tropical Storm Tracking
New forecast layout! Learn more

10-Day Weather Forecast

Advertisements
Track Severe Weather on mobile